sensor_id;sensor_type;location;lat;lon;timestamp;pressure;altitude;pressure_sealevel;temperature;humidity
31346;BME280;21711;49.708;18.568;2023-02-16T00:00:28;98271.22;;;-0.74;100.00
31346;BME280;21711;49.708;18.568;2023-02-16T00:02:56;98270.69;;;-0.69;100.00
31346;BME280;21711;49.708;18.568;2023-02-16T00:05:25;98274.50;;;-0.80;100.00
31346;BME280;21711;49.708;18.568;2023-02-16T00:07:53;98274.63;;;-0.97;100.00
31346;BME280;21711;49.708;18.568;2023-02-16T00:10:21;98265.28;;;-0.83;100.00
31346;BME280;21711;49.708;18.568;2023-02-16T00:12:48;98269.66;;;-0.83;100.00
31346;BME280;21711;49.708;18.568;2023-02-16T00:15:34;98264.63;;;-0.85;100.00
31346;BME280;21711;49.708;18.568;2023-02-16T00:18:03;98263.09;;;-0.71;100.00
31346;BME280;21711;49.708;18.568;2023-02-16T00:20:38;98266.59;;;-0.63;100.00
31346;BME280;21711;49.708;18.568;2023-02-16T00:23:05;98263.28;;;-0.57;100.00
31346;BME280;21711;49.708;18.568;2023-02-16T00:25:32;98262.09;;;-0.70;100.00
31346;BME280;21711;49.708;18.568;2023-02-16T00:28:03;98263.75;;;-0.77;100.00
31346;BME280;21711;49.708;18.568;2023-02-16T00:30:31;98255.34;;;-0.79;100.00
31346;BME280;21711;49.708;18.568;2023-02-16T00:32:59;98260.19;;;-0.99;100.00
31346;BME280;21711;49.708;18.568;2023-02-16T00:35:27;98256.81;;;-1.00;100.00
31346;BME280;21711;49.708;18.568;2023-02-16T00:37:55;98260.25;;;-1.08;100.00
31346;BME280;21711;49.708;18.568;2023-02-16T00:40:22;98252.41;;;-1.23;100.00
31346;BME280;21711;49.708;18.568;2023-02-16T00:42:50;98248.91;;;-1.38;100.00
31346;BME280;21711;49.708;18.568;2023-02-16T00:45:19;98243.47;;;-1.52;100.00
31346;BME280;21711;49.708;18.568;2023-02-16T00:47:49;98242.94;;;-1.47;100.00
31346;BME280;21711;49.708;18.568;2023-02-16T00:50:31;98245.00;;;-1.66;100.00
31346;BME280;21711;49.708;18.568;2023-02-16T00:52:58;98242.06;;;-1.63;100.00
31346;BME280;21711;49.708;18.568;2023-02-16T00:55:34;98245.22;;;-1.44;100.00
31346;BME280;21711;49.708;18.568;2023-02-16T01:00:52;98241.44;;;-1.33;100.00
31346;BME280;21711;49.708;18.568;2023-02-16T01:03:24;98244.38;;;-1.36;100.00
31346;BME280;21711;49.708;18.568;2023-02-16T01:05:53;98241.06;;;-1.30;100.00
31346;BME280;21711;49.708;18.568;2023-02-16T01:08:41;98239.59;;;-1.24;100.00
31346;BME280;21711;49.708;18.568;2023-02-16T01:11:27;98241.47;;;-1.18;100.00
31346;BME280;21711;49.708;18.568;2023-02-16T01:13:56;98230.88;;;-1.08;100.00
31346;BME280;21711;49.708;18.568;2023-02-16T01:16:50;98226.78;;;-1.02;100.00
31346;BME280;21711;49.708;18.568;2023-02-16T01:19:19;98224.38;;;-1.04;100.00
31346;BME280;21711;49.708;18.568;2023-02-16T01:21:46;98224.09;;;-1.09;100.00
31346;BME280;21711;49.708;18.568;2023-02-16T01:24:17;98221.50;;;-1.09;100.00
31346;BME280;21711;49.708;18.568;2023-02-16T01:26:49;98208.56;;;-1.17;100.00
31346;BME280;21711;49.708;18.568;2023-02-16T01:29:19;98221.72;;;-1.19;100.00
31346;BME280;21711;49.708;18.568;2023-02-16T01:31:48;98208.03;;;-1.13;100.00
31346;BME280;21711;49.708;18.568;2023-02-16T01:34:16;98200.31;;;-1.21;100.00
31346;BME280;21711;49.708;18.568;2023-02-16T01:36:46;98204.16;;;-1.17;100.00
31346;BME280;21711;49.708;18.568;2023-02-16T01:39:17;98211.28;;;-1.11;100.00
31346;BME280;21711;49.708;18.568;2023-02-16T01:42:37;98207.75;;;-1.18;100.00
31346;BME280;21711;49.708;18.568;2023-02-16T01:45:16;98212.81;;;-1.25;100.00
31346;BME280;21711;49.708;18.568;2023-02-16T01:48:08;98215.28;;;-1.32;100.00
31346;BME280;21711;49.708;18.568;2023-02-16T01:53:59;98206.59;;;-1.39;100.00
31346;BME280;21711;49.708;18.568;2023-02-16T01:56:45;98203.44;;;-1.57;100.00
31346;BME280;21711;49.708;18.568;2023-02-16T02:02:02;98199.63;;;-1.78;100.00
31346;BME280;21711;49.708;18.568;2023-02-16T02:04:46;98197.88;;;-1.78;100.00
31346;BME280;21711;49.708;18.568;2023-02-16T02:07:52;98193.72;;;-1.95;100.00
31346;BME280;21711;49.708;18.568;2023-02-16T02:16:03;98194.91;;;-1.66;100.00
31346;BME280;21711;49.708;18.568;2023-02-16T02:18:32;98192.53;;;-1.53;100.00
31346;BME280;21711;49.708;18.568;2023-02-16T02:27:25;98185.56;;;-1.52;100.00
31346;BME280;21711;49.708;18.568;2023-02-16T02:36:15;98181.16;;;-1.20;100.00
31346;BME280;21711;49.708;18.568;2023-02-16T02:38:59;98188.25;;;-1.14;100.00
31346;BME280;21711;49.708;18.568;2023-02-16T02:42:03;98182.22;;;-0.91;100.00
31346;BME280;21711;49.708;18.568;2023-02-16T02:45:28;98188.84;;;-0.88;100.00
31346;BME280;21711;49.708;18.568;2023-02-16T02:47:58;98190.53;;;-0.96;100.00
31346;BME280;21711;49.708;18.568;2023-02-16T02:53:11;98183.16;;;-1.07;100.00
31346;BME280;21711;49.708;18.568;2023-02-16T02:55:46;98188.78;;;-1.18;100.00
31346;BME280;21711;49.708;18.568;2023-02-16T02:58:35;98198.50;;;-1.21;100.00
31346;BME280;21711;49.708;18.568;2023-02-16T03:01:23;98197.75;;;-1.06;100.00
31346;BME280;21711;49.708;18.568;2023-02-16T03:03:54;98200.88;;;-1.11;100.00
31346;BME280;21711;49.708;18.568;2023-02-16T03:06:31;98217.75;;;-1.07;100.00
31346;BME280;21711;49.708;18.568;2023-02-16T03:09:05;98213.06;;;-1.35;100.00
31346;BME280;21711;49.708;18.568;2023-02-16T03:11:34;98216.84;;;-1.46;100.00
31346;BME280;21711;49.708;18.568;2023-02-16T03:14:31;98212.16;;;-1.50;100.00
31346;BME280;21711;49.708;18.568;2023-02-16T03:17:08;98216.63;;;-1.67;100.00
31346;BME280;21711;49.708;18.568;2023-02-16T03:19:56;98212.28;;;-1.75;100.00
31346;BME280;21711;49.708;18.568;2023-02-16T03:22:44;98208.47;;;-1.88;100.00
31346;BME280;21711;49.708;18.568;2023-02-16T03:25:36;98217.41;;;-1.99;100.00
31346;BME280;21711;49.708;18.568;2023-02-16T03:28:26;98210.97;;;-2.11;100.00
31346;BME280;21711;49.708;18.568;2023-02-16T03:31:22;98203.16;;;-2.03;100.00
31346;BME280;21711;49.708;18.568;2023-02-16T03:33:50;98202.94;;;-1.93;100.00
31346;BME280;21711;49.708;18.568;2023-02-16T03:36:28;98213.66;;;-1.88;100.00
31346;BME280;21711;49.708;18.568;2023-02-16T03:38:58;98207.09;;;-1.75;100.00
31346;BME280;21711;49.708;18.568;2023-02-16T03:41:26;98211.94;;;-1.72;100.00
31346;BME280;21711;49.708;18.568;2023-02-16T03:43:57;98208.22;;;-1.69;100.00
31346;BME280;21711;49.708;18.568;2023-02-16T03:46:25;98204.53;;;-1.83;100.00
31346;BME280;21711;49.708;18.568;2023-02-16T03:48:52;98204.59;;;-2.00;100.00
31346;BME280;21711;49.708;18.568;2023-02-16T03:51:19;98191.03;;;-2.10;100.00
31346;BME280;21711;49.708;18.568;2023-02-16T03:53:47;98185.88;;;-2.19;100.00
31346;BME280;21711;49.708;18.568;2023-02-16T03:56:14;98181.69;;;-2.20;100.00
31346;BME280;21711;49.708;18.568;2023-02-16T03:58:41;98187.03;;;-2.21;100.00
31346;BME280;21711;49.708;18.568;2023-02-16T04:01:08;98174.25;;;-2.31;100.00
31346;BME280;21711;49.708;18.568;2023-02-16T04:03:36;98176.22;;;-2.33;100.00
31346;BME280;21711;49.708;18.568;2023-02-16T04:06:03;98172.31;;;-2.38;100.00
31346;BME280;21711;49.708;18.568;2023-02-16T04:08:30;98166.53;;;-2.40;100.00
31346;BME280;21711;49.708;18.568;2023-02-16T04:10:58;98173.06;;;-2.12;100.00
31346;BME280;21711;49.708;18.568;2023-02-16T04:13:26;98172.66;;;-1.92;100.00
31346;BME280;21711;49.708;18.568;2023-02-16T04:15:53;98170.75;;;-1.99;100.00
31346;BME280;21711;49.708;18.568;2023-02-16T04:18:20;98159.81;;;-2.17;100.00
31346;BME280;21711;49.708;18.568;2023-02-16T04:20:48;98152.22;;;-2.27;100.00
31346;BME280;21711;49.708;18.568;2023-02-16T04:23:15;98150.75;;;-2.30;100.00
31346;BME280;21711;49.708;18.568;2023-02-16T04:25:42;98153.50;;;-2.23;100.00
31346;BME280;21711;49.708;18.568;2023-02-16T04:28:09;98146.69;;;-2.24;100.00
31346;BME280;21711;49.708;18.568;2023-02-16T04:30:37;98143.44;;;-2.26;100.00
31346;BME280;21711;49.708;18.568;2023-02-16T04:33:04;98149.16;;;-2.31;100.00
31346;BME280;21711;49.708;18.568;2023-02-16T04:35:31;98144.13;;;-2.32;100.00
31346;BME280;21711;49.708;18.568;2023-02-16T04:37:59;98153.72;;;-2.33;100.00
31346;BME280;21711;49.708;18.568;2023-02-16T04:40:26;98146.88;;;-2.34;100.00
31346;BME280;21711;49.708;18.568;2023-02-16T04:42:53;98140.84;;;-2.26;100.00
31346;BME280;21711;49.708;18.568;2023-02-16T04:45:20;98139.56;;;-2.22;100.00
31346;BME280;21711;49.708;18.568;2023-02-16T04:47:48;98140.50;;;-2.15;100.00
31346;BME280;21711;49.708;18.568;2023-02-16T04:50:15;98139.19;;;-2.10;100.00
31346;BME280;21711;49.708;18.568;2023-02-16T04:52:42;98139.81;;;-2.08;100.00
31346;BME280;21711;49.708;18.568;2023-02-16T04:55:10;98138.22;;;-2.09;100.00
31346;BME280;21711;49.708;18.568;2023-02-16T04:57:39;98148.88;;;-2.04;100.00
31346;BME280;21711;49.708;18.568;2023-02-16T05:00:08;98154.38;;;-1.99;100.00
31346;BME280;21711;49.708;18.568;2023-02-16T05:02:36;98149.00;;;-1.89;100.00
31346;BME280;21711;49.708;18.568;2023-02-16T05:05:03;98148.81;;;-1.88;100.00
31346;BME280;21711;49.708;18.568;2023-02-16T05:07:30;98150.03;;;-2.07;100.00
31346;BME280;21711;49.708;18.568;2023-02-16T05:09:58;98145.16;;;-2.10;100.00
31346;BME280;21711;49.708;18.568;2023-02-16T05:12:25;98140.78;;;-2.01;100.00
31346;BME280;21711;49.708;18.568;2023-02-16T05:15:11;98143.63;;;-1.88;100.00
31346;BME280;21711;49.708;18.568;2023-02-16T05:17:38;98150.38;;;-1.78;100.00
31346;BME280;21711;49.708;18.568;2023-02-16T05:20:06;98148.47;;;-1.85;100.00
31346;BME280;21711;49.708;18.568;2023-02-16T05:22:34;98152.84;;;-1.85;100.00
31346;BME280;21711;49.708;18.568;2023-02-16T05:25:01;98145.88;;;-1.85;100.00
31346;BME280;21711;49.708;18.568;2023-02-16T05:27:30;98139.41;;;-1.89;100.00
31346;BME280;21711;49.708;18.568;2023-02-16T05:29:58;98140.22;;;-1.88;100.00
31346;BME280;21711;49.708;18.568;2023-02-16T05:32:25;98149.25;;;-1.76;100.00
31346;BME280;21711;49.708;18.568;2023-02-16T05:34:52;98149.53;;;-1.70;100.00
31346;BME280;21711;49.708;18.568;2023-02-16T05:37:20;98146.47;;;-1.74;100.00
31346;BME280;21711;49.708;18.568;2023-02-16T05:39:47;98145.44;;;-1.65;100.00
31346;BME280;21711;49.708;18.568;2023-02-16T05:42:14;98147.22;;;-1.65;100.00
31346;BME280;21711;49.708;18.568;2023-02-16T05:44:41;98153.16;;;-1.56;100.00
31346;BME280;21711;49.708;18.568;2023-02-16T05:47:09;98162.63;;;-1.64;100.00
31346;BME280;21711;49.708;18.568;2023-02-16T05:49:37;98155.59;;;-1.55;100.00
31346;BME280;21711;49.708;18.568;2023-02-16T05:52:04;98150.69;;;-1.50;100.00
31346;BME280;21711;49.708;18.568;2023-02-16T05:54:31;98163.78;;;-1.43;100.00
31346;BME280;21711;49.708;18.568;2023-02-16T05:56:59;98159.09;;;-1.48;100.00
31346;BME280;21711;49.708;18.568;2023-02-16T05:59:26;98160.00;;;-1.32;100.00
31346;BME280;21711;49.708;18.568;2023-02-16T06:01:53;98162.97;;;-1.20;100.00
31346;BME280;21711;49.708;18.568;2023-02-16T06:04:22;98160.97;;;-1.33;100.00
31346;BME280;21711;49.708;18.568;2023-02-16T06:06:49;98156.06;;;-1.28;100.00
31346;BME280;21711;49.708;18.568;2023-02-16T06:09:16;98148.84;;;-1.17;100.00
31346;BME280;21711;49.708;18.568;2023-02-16T06:11:44;98155.59;;;-1.08;100.00
31346;BME280;21711;49.708;18.568;2023-02-16T06:14:13;98158.31;;;-0.86;100.00
31346;BME280;21711;49.708;18.568;2023-02-16T06:16:44;98169.22;;;-0.52;100.00
31346;BME280;21711;49.708;18.568;2023-02-16T06:19:13;98172.31;;;-0.12;100.00
31346;BME280;21711;49.708;18.568;2023-02-16T06:21:41;98179.78;;;0.06;100.00
31346;BME280;21711;49.708;18.568;2023-02-16T06:24:10;98178.16;;;0.64;100.00
31346;BME280;21711;49.708;18.568;2023-02-16T06:26:38;98174.97;;;0.84;100.00
31346;BME280;21711;49.708;18.568;2023-02-16T06:29:06;98176.81;;;0.90;100.00
31346;BME280;21711;49.708;18.568;2023-02-16T06:31:34;98185.28;;;1.21;100.00
31346;BME280;21711;49.708;18.568;2023-02-16T06:34:03;98192.09;;;1.22;100.00
31346;BME280;21711;49.708;18.568;2023-02-16T06:36:31;98188.97;;;1.04;100.00
31346;BME280;21711;49.708;18.568;2023-02-16T06:39:00;98192.44;;;1.12;100.00
31346;BME280;21711;49.708;18.568;2023-02-16T06:41:27;98194.31;;;0.96;100.00
31346;BME280;21711;49.708;18.568;2023-02-16T06:44:04;98194.19;;;1.04;100.00
31346;BME280;21711;49.708;18.568;2023-02-16T06:46:32;98191.22;;;1.08;100.00
31346;BME280;21711;49.708;18.568;2023-02-16T06:49:00;98186.72;;;1.01;100.00
31346;BME280;21711;49.708;18.568;2023-02-16T06:51:27;98190.75;;;1.04;100.00
31346;BME280;21711;49.708;18.568;2023-02-16T06:53:55;98183.63;;;0.91;100.00
31346;BME280;21711;49.708;18.568;2023-02-16T06:56:23;98190.34;;;1.00;100.00
31346;BME280;21711;49.708;18.568;2023-02-16T06:58:50;98193.34;;;1.04;100.00
31346;BME280;21711;49.708;18.568;2023-02-16T07:01:17;98183.69;;;1.20;100.00
31346;BME280;21711;49.708;18.568;2023-02-16T07:03:53;98186.28;;;1.20;100.00
31346;BME280;21711;49.708;18.568;2023-02-16T07:06:25;98196.81;;;1.33;100.00
31346;BME280;21711;49.708;18.568;2023-02-16T07:08:53;98182.34;;;1.30;100.00
31346;BME280;21711;49.708;18.568;2023-02-16T07:11:21;98174.78;;;1.36;100.00
31346;BME280;21711;49.708;18.568;2023-02-16T07:13:49;98176.44;;;1.43;100.00
31346;BME280;21711;49.708;18.568;2023-02-16T07:16:16;98183.56;;;1.63;100.00
31346;BME280;21711;49.708;18.568;2023-02-16T07:18:44;98187.75;;;1.93;100.00
31346;BME280;21711;49.708;18.568;2023-02-16T07:21:12;98186.13;;;2.54;100.00
31346;BME280;21711;49.708;18.568;2023-02-16T07:23:40;98186.78;;;3.58;100.00
31346;BME280;21711;49.708;18.568;2023-02-16T07:26:07;98187.78;;;4.29;100.00
31346;BME280;21711;49.708;18.568;2023-02-16T07:28:35;98186.50;;;5.03;100.00
31346;BME280;21711;49.708;18.568;2023-02-16T07:31:10;98191.28;;;5.83;100.00
31346;BME280;21711;49.708;18.568;2023-02-16T07:33:38;98204.03;;;7.08;100.00
31346;BME280;21711;49.708;18.568;2023-02-16T07:36:07;98200.38;;;8.34;100.00
31346;BME280;21711;49.708;18.568;2023-02-16T07:38:35;98195.03;;;9.21;100.00
31346;BME280;21711;49.708;18.568;2023-02-16T07:41:03;98209.72;;;9.91;87.64
31346;BME280;21711;49.708;18.568;2023-02-16T07:43:36;98202.28;;;10.55;71.72
31346;BME280;21711;49.708;18.568;2023-02-16T07:46:04;98201.53;;;11.20;70.93
31346;BME280;21711;49.708;18.568;2023-02-16T07:48:31;98213.44;;;11.61;62.30
31346;BME280;21711;49.708;18.568;2023-02-16T07:50:58;98217.97;;;12.08;56.57
31346;BME280;21711;49.708;18.568;2023-02-16T07:53:26;98213.38;;;13.66;52.10
31346;BME280;21711;49.708;18.568;2023-02-16T07:55:53;98218.59;;;14.03;49.72
31346;BME280;21711;49.708;18.568;2023-02-16T07:58:20;98206.75;;;12.86;49.02
31346;BME280;21711;49.708;18.568;2023-02-16T08:01:08;98213.28;;;13.98;48.07
31346;BME280;21711;49.708;18.568;2023-02-16T08:03:36;98216.94;;;15.08;46.59
31346;BME280;21711;49.708;18.568;2023-02-16T08:06:05;98222.94;;;16.08;42.42
31346;BME280;21711;49.708;18.568;2023-02-16T08:08:32;98221.41;;;16.26;40.91
31346;BME280;21711;49.708;18.568;2023-02-16T08:11:16;98215.28;;;15.76;42.04
31346;BME280;21711;49.708;18.568;2023-02-16T08:13:45;98206.88;;;15.05;41.36
31346;BME280;21711;49.708;18.568;2023-02-16T08:16:22;98210.44;;;15.78;39.23
31346;BME280;21711;49.708;18.568;2023-02-16T08:18:51;98205.31;;;14.98;40.77
31346;BME280;21711;49.708;18.568;2023-02-16T08:21:24;98202.22;;;15.16;40.36
31346;BME280;21711;49.708;18.568;2023-02-16T08:23:58;98205.69;;;15.16;39.02
31346;BME280;21711;49.708;18.568;2023-02-16T08:26:32;98202.94;;;15.27;39.27
31346;BME280;21711;49.708;18.568;2023-02-16T08:29:00;98204.03;;;15.55;38.75
31346;BME280;21711;49.708;18.568;2023-02-16T08:31:30;98212.53;;;16.30;39.18
31346;BME280;21711;49.708;18.568;2023-02-16T08:34:01;98219.84;;;16.00;37.33
31346;BME280;21711;49.708;18.568;2023-02-16T08:36:35;98222.81;;;16.18;38.42
31346;BME280;21711;49.708;18.568;2023-02-16T08:41:42;98211.81;;;16.44;38.34
31346;BME280;21711;49.708;18.568;2023-02-16T08:44:11;98218.25;;;16.81;37.58
31346;BME280;21711;49.708;18.568;2023-02-16T08:46:41;98225.72;;;16.99;35.63
31346;BME280;21711;49.708;18.568;2023-02-16T08:49:09;98217.09;;;16.68;36.93
31346;BME280;21711;49.708;18.568;2023-02-16T08:51:42;98224.19;;;15.91;36.84
31346;BME280;21711;49.708;18.568;2023-02-16T08:54:16;98215.50;;;16.48;36.19
31346;BME280;21711;49.708;18.568;2023-02-16T08:56:45;98214.03;;;16.37;37.46
31346;BME280;21711;49.708;18.568;2023-02-16T08:59:16;98217.03;;;16.35;36.79
31346;BME280;21711;49.708;18.568;2023-02-16T09:01:44;98221.47;;;16.98;35.35
31346;BME280;21711;49.708;18.568;2023-02-16T09:04:13;98215.56;;;15.75;37.80
31346;BME280;21711;49.708;18.568;2023-02-16T09:06:43;98218.44;;;16.85;37.40
31346;BME280;21711;49.708;18.568;2023-02-16T09:09:12;98221.91;;;17.05;34.47
31346;BME280;21711;49.708;18.568;2023-02-16T09:11:39;98220.09;;;16.81;35.96
31346;BME280;21711;49.708;18.568;2023-02-16T09:14:07;98220.56;;;15.52;38.68
31346;BME280;21711;49.708;18.568;2023-02-16T09:16:36;98217.16;;;15.46;37.28
31346;BME280;21711;49.708;18.568;2023-02-16T09:19:05;98221.78;;;15.65;38.71
31346;BME280;21711;49.708;18.568;2023-02-16T09:21:33;98220.41;;;15.97;38.65
31346;BME280;21711;49.708;18.568;2023-02-16T09:24:02;98221.22;;;17.46;36.22
31346;BME280;21711;49.708;18.568;2023-02-16T09:26:34;98225.53;;;16.56;36.28
31346;BME280;21711;49.708;18.568;2023-02-16T09:29:05;98219.47;;;16.89;36.11
31346;BME280;21711;49.708;18.568;2023-02-16T09:31:35;98221.94;;;16.47;36.84
31346;BME280;21711;49.708;18.568;2023-02-16T09:34:15;98224.53;;;15.84;38.08
31346;BME280;21711;49.708;18.568;2023-02-16T09:36:43;98229.22;;;15.68;39.03
31346;BME280;21711;49.708;18.568;2023-02-16T09:39:11;98209.78;;;16.74;36.58
31346;BME280;21711;49.708;18.568;2023-02-16T09:47:23;98210.44;;;18.73;31.85
31346;BME280;21711;49.708;18.568;2023-02-16T09:49:52;98226.56;;;19.50;30.97
31346;BME280;21711;49.708;18.568;2023-02-16T09:52:37;98230.56;;;20.87;30.75
31346;BME280;21711;49.708;18.568;2023-02-16T09:55:13;98232.97;;;21.45;29.14
31346;BME280;21711;49.708;18.568;2023-02-16T09:58:16;98226.72;;;21.14;28.53
31346;BME280;21711;49.708;18.568;2023-02-16T10:09:59;98222.97;;;20.62;29.84
31346;BME280;21711;49.708;18.568;2023-02-16T10:12:36;98216.97;;;19.49;30.22
31346;BME280;21711;49.708;18.568;2023-02-16T10:15:26;98207.16;;;19.22;31.63
31346;BME280;21711;49.708;18.568;2023-02-16T10:18:31;98209.13;;;19.07;32.87
31346;BME280;21711;49.708;18.568;2023-02-16T10:21:03;98208.16;;;18.80;33.76
31346;BME280;21711;49.708;18.568;2023-02-16T10:23:48;98200.72;;;19.00;32.98
31346;BME280;21711;49.708;18.568;2023-02-16T10:26:36;98193.34;;;18.46;32.72
31346;BME280;21711;49.708;18.568;2023-02-16T10:29:20;98194.72;;;18.57;33.32
31346;BME280;21711;49.708;18.568;2023-02-16T10:34:47;98188.75;;;18.23;33.90
31346;BME280;21711;49.708;18.568;2023-02-16T10:43:22;98177.88;;;19.02;31.79
31346;BME280;21711;49.708;18.568;2023-02-16T10:45:53;98179.50;;;19.76;31.99
31346;BME280;21711;49.708;18.568;2023-02-16T10:48:22;98181.16;;;19.54;30.72
31346;BME280;21711;49.708;18.568;2023-02-16T10:51:04;98176.09;;;19.21;33.12
31346;BME280;21711;49.708;18.568;2023-02-16T10:53:39;98161.94;;;18.97;33.22
31346;BME280;21711;49.708;18.568;2023-02-16T10:56:58;98173.19;;;19.80;31.56
31346;BME280;21711;49.708;18.568;2023-02-16T11:02:42;98176.78;;;20.16;30.93
31346;BME280;21711;49.708;18.568;2023-02-16T11:07:59;98157.72;;;19.77;31.97
31346;BME280;21711;49.708;18.568;2023-02-16T11:10:52;98152.94;;;19.25;32.35
31346;BME280;21711;49.708;18.568;2023-02-16T11:13:33;98149.31;;;19.61;32.39
31346;BME280;21711;49.708;18.568;2023-02-16T11:16:17;98146.22;;;19.85;31.60
31346;BME280;21711;49.708;18.568;2023-02-16T11:19:01;98142.19;;;20.23;32.06
31346;BME280;21711;49.708;18.568;2023-02-16T11:21:53;98141.22;;;20.72;29.99
31346;BME280;21711;49.708;18.568;2023-02-16T11:24:34;98129.72;;;20.01;32.02
31346;BME280;21711;49.708;18.568;2023-02-16T11:29:40;98128.66;;;21.90;29.66
31346;BME280;21711;49.708;18.568;2023-02-16T11:32:13;98127.94;;;22.02;27.76
31346;BME280;21711;49.708;18.568;2023-02-16T11:34:48;98117.28;;;22.48;28.28
31346;BME280;21711;49.708;18.568;2023-02-16T11:37:30;98115.00;;;23.05;27.33
31346;BME280;21711;49.708;18.568;2023-02-16T11:40:04;98108.69;;;23.01;28.48
31346;BME280;21711;49.708;18.568;2023-02-16T11:42:39;98103.00;;;22.47;28.35
31346;BME280;21711;49.708;18.568;2023-02-16T11:45:20;98111.91;;;22.05;29.71
31346;BME280;21711;49.708;18.568;2023-02-16T11:48:12;98104.56;;;21.63;29.64
31346;BME280;21711;49.708;18.568;2023-02-16T11:51:07;98108.19;;;20.81;30.88
31346;BME280;21711;49.708;18.568;2023-02-16T11:53:40;98091.66;;;20.17;31.42
31346;BME280;21711;49.708;18.568;2023-02-16T12:13:20;98062.91;;;15.64;44.00
31346;BME280;21711;49.708;18.568;2023-02-16T12:19:58;98066.63;;;15.87;44.84
31346;BME280;21711;49.708;18.568;2023-02-16T12:22:46;98065.19;;;16.67;44.54
31346;BME280;21711;49.708;18.568;2023-02-16T12:30:32;98072.13;;;17.29;41.23
31346;BME280;21711;49.708;18.568;2023-02-16T12:33:27;98063.00;;;17.16;40.51
31346;BME280;21711;49.708;18.568;2023-02-16T12:36:17;98055.72;;;15.84;43.24
31346;BME280;21711;49.708;18.568;2023-02-16T12:44:19;98047.72;;;16.41;41.90
31346;BME280;21711;49.708;18.568;2023-02-16T12:47:03;98030.72;;;16.51;43.11
31346;BME280;21711;49.708;18.568;2023-02-16T12:55:37;98030.34;;;17.84;40.72
31346;BME280;21711;49.708;18.568;2023-02-16T12:58:33;98027.28;;;17.26;41.17
31346;BME280;21711;49.708;18.568;2023-02-16T13:01:29;98021.84;;;15.21;46.28
31346;BME280;21711;49.708;18.568;2023-02-16T13:04:12;98018.25;;;15.75;45.17
31346;BME280;21711;49.708;18.568;2023-02-16T13:13:01;98004.16;;;15.94;44.63
31346;BME280;21711;49.708;18.568;2023-02-16T13:18:19;97993.88;;;14.94;46.45
31346;BME280;21711;49.708;18.568;2023-02-16T13:20:55;97997.22;;;14.51;47.25
31346;BME280;21711;49.708;18.568;2023-02-16T13:29:27;97980.84;;;15.17;47.94
31346;BME280;21711;49.708;18.568;2023-02-16T13:38:15;97978.84;;;13.85;49.33
31346;BME280;21711;49.708;18.568;2023-02-16T13:41:24;97979.56;;;13.56;51.09
31346;BME280;21711;49.708;18.568;2023-02-16T13:44:24;97976.34;;;12.98;49.20
31346;BME280;21711;49.708;18.568;2023-02-16T13:46:54;97976.69;;;13.47;51.38
31346;BME280;21711;49.708;18.568;2023-02-16T13:49:39;97974.28;;;13.40;52.72
31346;BME280;21711;49.708;18.568;2023-02-16T13:52:40;97969.63;;;13.17;49.48
31346;BME280;21711;49.708;18.568;2023-02-16T13:57:59;97969.28;;;12.26;51.77
31346;BME280;21711;49.708;18.568;2023-02-16T14:00:39;97968.75;;;12.08;52.04
31346;BME280;21711;49.708;18.568;2023-02-16T14:03:36;97968.97;;;11.60;56.25
31346;BME280;21711;49.708;18.568;2023-02-16T14:06:30;97965.19;;;10.76;56.20
31346;BME280;21711;49.708;18.568;2023-02-16T14:14:35;97958.44;;;9.87;56.57
31346;BME280;21711;49.708;18.568;2023-02-16T14:22:49;97967.41;;;9.59;56.22
31346;BME280;21711;49.708;18.568;2023-02-16T14:27:55;97961.31;;;9.31;57.66
31346;BME280;21711;49.708;18.568;2023-02-16T14:30:55;97955.09;;;9.42;58.72
31346;BME280;21711;49.708;18.568;2023-02-16T14:33:48;97957.97;;;9.41;57.48
31346;BME280;21711;49.708;18.568;2023-02-16T14:36:21;97947.88;;;9.10;58.75
31346;BME280;21711;49.708;18.568;2023-02-16T14:38:54;97952.34;;;9.10;58.80
31346;BME280;21711;49.708;18.568;2023-02-16T14:41:32;97949.59;;;8.77;58.55
31346;BME280;21711;49.708;18.568;2023-02-16T14:58:44;97961.72;;;8.78;59.56
31346;BME280;21711;49.708;18.568;2023-02-16T15:01:16;97961.22;;;8.81;62.96
31346;BME280;21711;49.708;18.568;2023-02-16T15:03:49;97955.75;;;8.65;61.10
31346;BME280;21711;49.708;18.568;2023-02-16T15:06:33;97961.44;;;8.57;60.73
31346;BME280;21711;49.708;18.568;2023-02-16T15:09:15;97960.41;;;8.58;60.45
31346;BME280;21711;49.708;18.568;2023-02-16T15:12:12;97950.88;;;8.23;60.85
31346;BME280;21711;49.708;18.568;2023-02-16T15:15:17;97958.25;;;8.21;61.03
31346;BME280;21711;49.708;18.568;2023-02-16T15:17:49;97958.78;;;8.23;60.45
31346;BME280;21711;49.708;18.568;2023-02-16T15:20:28;97963.66;;;8.14;60.38
31346;BME280;21711;49.708;18.568;2023-02-16T15:23:04;97963.16;;;8.17;61.51
31346;BME280;21711;49.708;18.568;2023-02-16T15:25:39;97958.69;;;7.83;62.98
31346;BME280;21711;49.708;18.568;2023-02-16T15:30:40;97966.28;;;7.80;63.17
31346;BME280;21711;49.708;18.568;2023-02-16T15:33:30;97970.97;;;7.95;63.24
31346;BME280;21711;49.708;18.568;2023-02-16T15:36:10;97966.44;;;7.90;64.11
31346;BME280;21711;49.708;18.568;2023-02-16T15:38:56;97965.00;;;7.82;64.37
31346;BME280;21711;49.708;18.568;2023-02-16T15:41:39;97953.16;;;7.39;63.93
31346;BME280;21711;49.708;18.568;2023-02-16T15:44:32;97951.22;;;7.34;64.04
31346;BME280;21711;49.708;18.568;2023-02-16T15:47:21;97951.81;;;7.24;64.62
31346;BME280;21711;49.708;18.568;2023-02-16T15:49:50;97953.13;;;7.09;64.63
31346;BME280;21711;49.708;18.568;2023-02-16T15:52:32;97951.97;;;7.05;65.50
31346;BME280;21711;49.708;18.568;2023-02-16T15:55:02;97946.88;;;6.87;66.31
31346;BME280;21711;49.708;18.568;2023-02-16T15:57:35;97952.25;;;6.92;66.55
31346;BME280;21711;49.708;18.568;2023-02-16T16:00:21;97953.84;;;6.93;66.65
31346;BME280;21711;49.708;18.568;2023-02-16T16:02:53;97949.28;;;6.88;67.28